sensor_id;sensor_type;location;lat;lon;timestamp;pressure;altitude;pressure_sealevel;temperature;humidity
21821;BME280;11073;48.586;12.066;2023-02-18T00:01:52;97235.63;;;11.80;70.31
21821;BME280;11073;48.586;12.066;2023-02-18T00:04:21;97234.63;;;11.81;70.04
21821;BME280;11073;48.586;12.066;2023-02-18T00:06:50;97242.31;;;11.84;69.94
21821;BME280;11073;48.586;12.066;2023-02-18T00:09:19;97242.13;;;11.79;69.97
21821;BME280;11073;48.586;12.066;2023-02-18T00:11:49;97222.25;;;11.67;70.04
21821;BME280;11073;48.586;12.066;2023-02-18T00:14:18;97229.91;;;11.70;70.32
21821;BME280;11073;48.586;12.066;2023-02-18T00:16:46;97244.63;;;11.80;70.22
21821;BME280;11073;48.586;12.066;2023-02-18T00:19:18;97243.78;;;11.80;69.98
21821;BME280;11073;48.586;12.066;2023-02-18T00:21:47;97244.00;;;11.78;70.10
21821;BME280;11073;48.586;12.066;2023-02-18T00:24:16;97247.53;;;11.79;70.22
21821;BME280;11073;48.586;12.066;2023-02-18T00:26:49;97222.69;;;11.64;70.28
21821;BME280;11073;48.586;12.066;2023-02-18T00:29:17;97241.72;;;11.82;70.43
21821;BME280;11073;48.586;12.066;2023-02-18T00:31:47;97236.50;;;11.80;70.35
21821;BME280;11073;48.586;12.066;2023-02-18T00:34:16;97232.56;;;11.76;70.53
21821;BME280;11073;48.586;12.066;2023-02-18T00:36:45;97238.28;;;11.68;70.67
21821;BME280;11073;48.586;12.066;2023-02-18T00:39:14;97225.16;;;11.65;70.97
21821;BME280;11073;48.586;12.066;2023-02-18T00:41:44;97222.09;;;11.62;71.02
21821;BME280;11073;48.586;12.066;2023-02-18T00:44:15;97227.50;;;11.62;71.27
21821;BME280;11073;48.586;12.066;2023-02-18T00:46:44;97225.22;;;11.58;71.29
21821;BME280;11073;48.586;12.066;2023-02-18T00:49:15;97219.91;;;11.52;71.29
21821;BME280;11073;48.586;12.066;2023-02-18T00:51:45;97217.41;;;11.50;71.78
21821;BME280;11073;48.586;12.066;2023-02-18T00:54:14;97233.06;;;11.48;71.96
21821;BME280;11073;48.586;12.066;2023-02-18T00:56:42;97225.84;;;11.42;71.88
21821;BME280;11073;48.586;12.066;2023-02-18T00:59:11;97225.41;;;11.45;72.00
21821;BME280;11073;48.586;12.066;2023-02-18T01:01:42;97218.53;;;11.43;72.10
21821;BME280;11073;48.586;12.066;2023-02-18T01:04:11;97211.09;;;11.38;72.13
21821;BME280;11073;48.586;12.066;2023-02-18T01:06:40;97208.38;;;11.38;72.15
21821;BME280;11073;48.586;12.066;2023-02-18T01:09:09;97226.53;;;11.38;72.14
21821;BME280;11073;48.586;12.066;2023-02-18T01:11:38;97210.47;;;11.36;72.48
21821;BME280;11073;48.586;12.066;2023-02-18T01:14:06;97203.56;;;11.40;72.14
21821;BME280;11073;48.586;12.066;2023-02-18T01:16:35;97212.50;;;11.41;72.09
21821;BME280;11073;48.586;12.066;2023-02-18T01:19:08;97215.22;;;11.41;72.03
21821;BME280;11073;48.586;12.066;2023-02-18T01:21:38;97209.56;;;11.42;72.01
21821;BME280;11073;48.586;12.066;2023-02-18T01:24:07;97214.41;;;11.40;72.13
21821;BME280;11073;48.586;12.066;2023-02-18T01:26:35;97224.66;;;11.38;71.86
21821;BME280;11073;48.586;12.066;2023-02-18T01:29:04;97210.63;;;11.41;71.87
21821;BME280;11073;48.586;12.066;2023-02-18T01:31:34;97206.25;;;11.40;71.81
21821;BME280;11073;48.586;12.066;2023-02-18T01:34:02;97202.97;;;11.38;71.75
21821;BME280;11073;48.586;12.066;2023-02-18T01:36:33;97204.97;;;11.43;71.49
21821;BME280;11073;48.586;12.066;2023-02-18T01:39:01;97197.66;;;11.43;71.58
21821;BME280;11073;48.586;12.066;2023-02-18T01:41:31;97188.28;;;11.46;71.19
21821;BME280;11073;48.586;12.066;2023-02-18T01:44:10;97190.75;;;11.47;71.23
21821;BME280;11073;48.586;12.066;2023-02-18T01:46:41;97194.28;;;11.48;70.93
21821;BME280;11073;48.586;12.066;2023-02-18T01:49:11;97181.31;;;11.50;70.56
21821;BME280;11073;48.586;12.066;2023-02-18T01:51:46;97185.25;;;11.54;70.34
21821;BME280;11073;48.586;12.066;2023-02-18T01:54:19;97186.69;;;11.56;70.04
21821;BME280;11073;48.586;12.066;2023-02-18T01:56:52;97184.78;;;11.57;70.01
21821;BME280;11073;48.586;12.066;2023-02-18T01:59:25;97160.47;;;11.50;69.75
21821;BME280;11073;48.586;12.066;2023-02-18T02:01:55;97175.38;;;11.59;69.42
21821;BME280;11073;48.586;12.066;2023-02-18T02:04:25;97187.66;;;11.62;69.48
21821;BME280;11073;48.586;12.066;2023-02-18T02:06:55;97169.72;;;11.61;69.21
21821;BME280;11073;48.586;12.066;2023-02-18T02:09:28;97167.63;;;11.63;68.89
21821;BME280;11073;48.586;12.066;2023-02-18T02:15:22;97159.88;;;11.67;68.54
21821;BME280;11073;48.586;12.066;2023-02-18T02:18:11;97147.34;;;11.66;68.59
21821;BME280;11073;48.586;12.066;2023-02-18T02:21:16;97147.50;;;11.71;68.22
21821;BME280;11073;48.586;12.066;2023-02-18T02:24:20;97150.66;;;11.68;68.26
21821;BME280;11073;48.586;12.066;2023-02-18T02:27:07;97151.25;;;11.70;67.74
21821;BME280;11073;48.586;12.066;2023-02-18T02:30:13;97146.66;;;11.70;67.90
21821;BME280;11073;48.586;12.066;2023-02-18T02:35:48;97139.94;;;11.73;67.52
21821;BME280;11073;48.586;12.066;2023-02-18T02:38:25;97136.63;;;11.71;67.26
21821;BME280;11073;48.586;12.066;2023-02-18T02:41:07;97141.25;;;11.70;67.51
21821;BME280;11073;48.586;12.066;2023-02-18T02:43:45;97135.38;;;11.73;67.26
21821;BME280;11073;48.586;12.066;2023-02-18T02:46:19;97141.81;;;11.72;67.14
21821;BME280;11073;48.586;12.066;2023-02-18T02:48:57;97135.38;;;11.73;67.29
21821;BME280;11073;48.586;12.066;2023-02-18T02:51:33;97124.13;;;11.70;67.01
21821;BME280;11073;48.586;12.066;2023-02-18T02:54:10;97138.28;;;11.72;66.97
21821;BME280;11073;48.586;12.066;2023-02-18T02:56:40;97149.13;;;11.72;67.42
21821;BME280;11073;48.586;12.066;2023-02-18T02:59:14;97147.50;;;11.71;67.16
21821;BME280;11073;48.586;12.066;2023-02-18T03:01:52;97143.13;;;11.70;67.57
21821;BME280;11073;48.586;12.066;2023-02-18T03:04:47;97129.81;;;11.68;67.75
21821;BME280;11073;48.586;12.066;2023-02-18T03:07:40;97129.41;;;11.65;67.53
21821;BME280;11073;48.586;12.066;2023-02-18T03:10:29;97124.22;;;11.63;68.13
21821;BME280;11073;48.586;12.066;2023-02-18T03:13:28;97118.88;;;11.56;68.10
21821;BME280;11073;48.586;12.066;2023-02-18T03:16:10;97116.56;;;11.60;68.39
21821;BME280;11073;48.586;12.066;2023-02-18T03:18:43;97134.91;;;11.58;68.71
21821;BME280;11073;48.586;12.066;2023-02-18T03:21:18;97142.63;;;11.61;68.87
21821;BME280;11073;48.586;12.066;2023-02-18T03:23:55;97125.13;;;11.57;69.12
21821;BME280;11073;48.586;12.066;2023-02-18T03:26:27;97131.03;;;11.54;69.36
21821;BME280;11073;48.586;12.066;2023-02-18T03:29:01;97143.84;;;11.47;69.44
21821;BME280;11073;48.586;12.066;2023-02-18T03:31:33;97129.06;;;11.43;70.10
21821;BME280;11073;48.586;12.066;2023-02-18T03:34:08;97114.69;;;11.42;70.14
21821;BME280;11073;48.586;12.066;2023-02-18T03:36:39;97126.00;;;11.39;70.64
21821;BME280;11073;48.586;12.066;2023-02-18T03:39:10;97123.72;;;11.36;70.98
21821;BME280;11073;48.586;12.066;2023-02-18T03:41:43;97120.88;;;11.31;71.18
21821;BME280;11073;48.586;12.066;2023-02-18T03:44:12;97101.28;;;11.29;71.71
21821;BME280;11073;48.586;12.066;2023-02-18T03:46:42;97106.50;;;11.30;72.20
21821;BME280;11073;48.586;12.066;2023-02-18T03:49:13;97107.63;;;11.23;72.26
21821;BME280;11073;48.586;12.066;2023-02-18T03:51:42;97081.88;;;11.14;72.42
21821;BME280;11073;48.586;12.066;2023-02-18T03:54:12;97101.34;;;11.22;72.66
21821;BME280;11073;48.586;12.066;2023-02-18T03:56:42;97099.69;;;11.21;72.95
21821;BME280;11073;48.586;12.066;2023-02-18T03:59:11;97088.50;;;11.18;73.06
21821;BME280;11073;48.586;12.066;2023-02-18T04:01:40;97105.75;;;11.23;73.23
21821;BME280;11073;48.586;12.066;2023-02-18T04:04:09;97105.94;;;11.22;73.22
21821;BME280;11073;48.586;12.066;2023-02-18T04:06:37;97095.81;;;11.17;72.91
21821;BME280;11073;48.586;12.066;2023-02-18T04:09:06;97102.81;;;11.25;72.96
21821;BME280;11073;48.586;12.066;2023-02-18T04:11:38;97108.22;;;11.25;73.04
21821;BME280;11073;48.586;12.066;2023-02-18T04:14:08;97108.47;;;11.23;72.88
21821;BME280;11073;48.586;12.066;2023-02-18T04:16:37;97114.00;;;11.28;72.57
21821;BME280;11073;48.586;12.066;2023-02-18T04:19:06;97119.81;;;11.32;72.77
21821;BME280;11073;48.586;12.066;2023-02-18T04:21:35;97108.59;;;11.28;72.47
21821;BME280;11073;48.586;12.066;2023-02-18T04:24:04;97114.00;;;11.28;72.13
21821;BME280;11073;48.586;12.066;2023-02-18T04:26:33;97123.59;;;11.31;72.12
21821;BME280;11073;48.586;12.066;2023-02-18T04:29:03;97113.34;;;11.33;72.08
21821;BME280;11073;48.586;12.066;2023-02-18T04:31:32;97128.53;;;11.34;71.60
21821;BME280;11073;48.586;12.066;2023-02-18T04:34:02;97118.00;;;11.26;71.73
21821;BME280;11073;48.586;12.066;2023-02-18T04:36:31;97123.34;;;11.32;71.19
21821;BME280;11073;48.586;12.066;2023-02-18T04:39:00;97099.28;;;11.24;71.30
21821;BME280;11073;48.586;12.066;2023-02-18T04:41:29;97094.28;;;11.21;71.05
21821;BME280;11073;48.586;12.066;2023-02-18T04:43:58;97115.59;;;11.36;71.07
21821;BME280;11073;48.586;12.066;2023-02-18T04:46:28;97116.22;;;11.38;70.50
21821;BME280;11073;48.586;12.066;2023-02-18T04:48:57;97140.38;;;11.40;70.25
21821;BME280;11073;48.586;12.066;2023-02-18T04:51:26;97133.06;;;11.40;70.05
21821;BME280;11073;48.586;12.066;2023-02-18T04:53:56;97122.22;;;11.40;70.16
21821;BME280;11073;48.586;12.066;2023-02-18T04:56:25;97122.22;;;11.40;69.82
21821;BME280;11073;48.586;12.066;2023-02-18T04:58:53;97138.03;;;11.43;69.88
21821;BME280;11073;48.586;12.066;2023-02-18T05:01:22;97138.84;;;11.44;69.62
21821;BME280;11073;48.586;12.066;2023-02-18T05:03:51;97126.13;;;11.44;69.51
21821;BME280;11073;48.586;12.066;2023-02-18T05:06:20;97137.44;;;11.41;69.40
21821;BME280;11073;48.586;12.066;2023-02-18T05:08:49;97127.41;;;11.42;69.67
21821;BME280;11073;48.586;12.066;2023-02-18T05:11:18;97131.66;;;11.38;69.70
21821;BME280;11073;48.586;12.066;2023-02-18T05:13:47;97132.91;;;11.35;69.61
21821;BME280;11073;48.586;12.066;2023-02-18T05:16:15;97128.53;;;11.34;69.60
21821;BME280;11073;48.586;12.066;2023-02-18T05:18:44;97129.97;;;11.37;69.25
21821;BME280;11073;48.586;12.066;2023-02-18T05:21:14;97138.50;;;11.40;69.49
21821;BME280;11073;48.586;12.066;2023-02-18T05:23:43;97123.72;;;11.36;69.33
21821;BME280;11073;48.586;12.066;2023-02-18T05:26:12;97124.84;;;11.28;69.11
21821;BME280;11073;48.586;12.066;2023-02-18T05:28:41;97126.22;;;11.38;69.42
21821;BME280;11073;48.586;12.066;2023-02-18T05:31:10;97125.00;;;11.33;69.33
21821;BME280;11073;48.586;12.066;2023-02-18T05:33:39;97127.13;;;11.31;69.30
21821;BME280;11073;48.586;12.066;2023-02-18T05:36:08;97122.75;;;11.30;69.29
21821;BME280;11073;48.586;12.066;2023-02-18T05:38:38;97114.84;;;11.29;69.32
21821;BME280;11073;48.586;12.066;2023-02-18T05:41:07;97117.34;;;11.30;69.31
21821;BME280;11073;48.586;12.066;2023-02-18T05:43:36;97115.66;;;11.29;69.77
21821;BME280;11073;48.586;12.066;2023-02-18T05:46:19;97107.53;;;11.29;69.44
21821;BME280;11073;48.586;12.066;2023-02-18T05:48:48;97111.91;;;11.30;69.31
21821;BME280;11073;48.586;12.066;2023-02-18T05:51:17;97115.22;;;11.32;69.29
21821;BME280;11073;48.586;12.066;2023-02-18T05:53:47;97122.06;;;11.35;69.38
21821;BME280;11073;48.586;12.066;2023-02-18T05:56:15;97118.28;;;11.36;69.19
21821;BME280;11073;48.586;12.066;2023-02-18T05:58:44;97115.38;;;11.38;68.87
21821;BME280;11073;48.586;12.066;2023-02-18T06:01:13;97119.50;;;11.40;68.95
21821;BME280;11073;48.586;12.066;2023-02-18T06:03:42;97116.56;;;11.42;68.74
21821;BME280;11073;48.586;12.066;2023-02-18T06:06:10;97109.72;;;11.39;68.32
21821;BME280;11073;48.586;12.066;2023-02-18T06:08:39;97127.66;;;11.40;68.35
21821;BME280;11073;48.586;12.066;2023-02-18T06:11:09;97122.22;;;11.40;68.33
21821;BME280;11073;48.586;12.066;2023-02-18T06:13:39;97132.00;;;11.41;68.53
21821;BME280;11073;48.586;12.066;2023-02-18T06:16:08;97129.53;;;11.40;68.34
21821;BME280;11073;48.586;12.066;2023-02-18T06:18:37;97127.41;;;11.42;68.13
21821;BME280;11073;48.586;12.066;2023-02-18T06:21:06;97105.28;;;11.26;67.95
21821;BME280;11073;48.586;12.066;2023-02-18T06:23:35;97132.00;;;11.41;67.90
21821;BME280;11073;48.586;12.066;2023-02-18T06:26:04;97131.78;;;11.43;67.98
21821;BME280;11073;48.586;12.066;2023-02-18T06:28:35;97145.72;;;11.46;67.61
21821;BME280;11073;48.586;12.066;2023-02-18T06:31:04;97151.13;;;11.46;67.67
21821;BME280;11073;48.586;12.066;2023-02-18T06:33:33;97131.53;;;11.44;67.41
21821;BME280;11073;48.586;12.066;2023-02-18T06:36:04;97135.94;;;11.45;67.34
21821;BME280;11073;48.586;12.066;2023-02-18T06:38:35;97139.25;;;11.47;67.12
21821;BME280;11073;48.586;12.066;2023-02-18T06:41:04;97142.19;;;11.46;67.29
21821;BME280;11073;48.586;12.066;2023-02-18T06:43:32;97132.16;;;11.46;67.25
21821;BME280;11073;48.586;12.066;2023-02-18T06:46:03;97125.69;;;11.47;66.88
21821;BME280;11073;48.586;12.066;2023-02-18T06:48:33;97130.88;;;11.49;66.72
21821;BME280;11073;48.586;12.066;2023-02-18T06:51:01;97123.56;;;11.49;66.63
21821;BME280;11073;48.586;12.066;2023-02-18T06:53:30;97121.44;;;11.51;66.61
21821;BME280;11073;48.586;12.066;2023-02-18T06:55:58;97127.72;;;11.52;66.78
21821;BME280;11073;48.586;12.066;2023-02-18T06:58:27;97127.25;;;11.55;66.43
21821;BME280;11073;48.586;12.066;2023-02-18T07:00:55;97128.06;;;11.55;66.23
21821;BME280;11073;48.586;12.066;2023-02-18T07:03:26;97119.13;;;11.55;66.24
21821;BME280;11073;48.586;12.066;2023-02-18T07:05:55;97119.13;;;11.55;66.43
21821;BME280;11073;48.586;12.066;2023-02-18T07:08:23;97113.69;;;11.55;66.02
21821;BME280;11073;48.586;12.066;2023-02-18T07:10:52;97123.03;;;11.59;66.03
21821;BME280;11073;48.586;12.066;2023-02-18T07:13:21;97112.41;;;11.57;65.69
21821;BME280;11073;48.586;12.066;2023-02-18T07:15:49;97116.09;;;11.63;65.78
21821;BME280;11073;48.586;12.066;2023-02-18T07:18:18;97125.63;;;11.66;65.70
21821;BME280;11073;48.586;12.066;2023-02-18T07:20:48;97116.69;;;11.65;65.71
21821;BME280;11073;48.586;12.066;2023-02-18T07:23:16;97123.53;;;11.68;65.62
21821;BME280;11073;48.586;12.066;2023-02-18T07:25:45;97129.22;;;11.66;65.14
21821;BME280;11073;48.586;12.066;2023-02-18T07:28:14;97127.91;;;11.69;65.29
21821;BME280;11073;48.586;12.066;2023-02-18T07:30:43;97125.78;;;11.71;64.92
21821;BME280;11073;48.586;12.066;2023-02-18T07:33:12;97124.72;;;11.72;64.93
21821;BME280;11073;48.586;12.066;2023-02-18T07:35:41;97111.63;;;11.69;64.74
21821;BME280;11073;48.586;12.066;2023-02-18T07:38:11;97121.44;;;11.70;64.58
21821;BME280;11073;48.586;12.066;2023-02-18T07:40:39;97117.41;;;11.72;64.67
21821;BME280;11073;48.586;12.066;2023-02-18T07:43:07;97116.38;;;11.73;64.54
21821;BME280;11073;48.586;12.066;2023-02-18T07:45:37;97109.44;;;11.77;64.56
21821;BME280;11073;48.586;12.066;2023-02-18T07:48:05;97111.69;;;11.80;64.29
21821;BME280;11073;48.586;12.066;2023-02-18T07:50:34;97110.44;;;11.83;64.16
21821;BME280;11073;48.586;12.066;2023-02-18T07:53:04;97097.69;;;11.83;64.34
21821;BME280;11073;48.586;12.066;2023-02-18T07:55:34;97076.13;;;11.70;64.22
21821;BME280;11073;48.586;12.066;2023-02-18T07:58:19;97100.56;;;11.89;63.92
21821;BME280;11073;48.586;12.066;2023-02-18T08:00:48;97100.56;;;11.89;64.07
21821;BME280;11073;48.586;12.066;2023-02-18T08:03:18;97100.91;;;11.92;63.96
21821;BME280;11073;48.586;12.066;2023-02-18T08:05:47;97100.91;;;11.92;63.98
21821;BME280;11073;48.586;12.066;2023-02-18T08:08:19;97104.59;;;11.98;63.84
21821;BME280;11073;48.586;12.066;2023-02-18T08:10:50;97090.19;;;12.09;63.63
21821;BME280;11073;48.586;12.066;2023-02-18T08:13:19;97092.94;;;12.21;63.67
21821;BME280;11073;48.586;12.066;2023-02-18T08:15:48;97104.06;;;12.31;63.74
21821;BME280;11073;48.586;12.066;2023-02-18T08:18:18;97071.81;;;12.23;63.57
21821;BME280;11073;48.586;12.066;2023-02-18T08:20:47;97100.19;;;12.38;63.28
21821;BME280;11073;48.586;12.066;2023-02-18T08:23:17;97094.63;;;12.45;63.25
21821;BME280;11073;48.586;12.066;2023-02-18T08:25:49;97085.69;;;12.56;63.40
21821;BME280;11073;48.586;12.066;2023-02-18T08:28:20;97087.09;;;12.59;63.23
21821;BME280;11073;48.586;12.066;2023-02-18T08:30:51;97100.31;;;12.67;62.96
21821;BME280;11073;48.586;12.066;2023-02-18T08:33:22;97087.59;;;12.67;62.83
21821;BME280;11073;48.586;12.066;2023-02-18T08:35:52;97101.88;;;12.63;63.03
21821;BME280;11073;48.586;12.066;2023-02-18T08:38:22;97096.06;;;12.59;62.94
21821;BME280;11073;48.586;12.066;2023-02-18T08:41:00;97092.53;;;12.59;62.93
21821;BME280;11073;48.586;12.066;2023-02-18T08:43:29;97102.22;;;12.55;62.87
21821;BME280;11073;48.586;12.066;2023-02-18T08:45:58;97095.97;;;12.54;62.98
21821;BME280;11073;48.586;12.066;2023-02-18T08:48:27;97083.56;;;12.58;62.80
21821;BME280;11073;48.586;12.066;2023-02-18T08:50:57;97101.75;;;12.69;62.96
21821;BME280;11073;48.586;12.066;2023-02-18T08:53:25;97089.47;;;12.79;62.82
21821;BME280;11073;48.586;12.066;2023-02-18T08:55:55;97081.19;;;12.85;62.67
21821;BME280;11073;48.586;12.066;2023-02-18T08:58:24;97086.50;;;12.92;62.36
21821;BME280;11073;48.586;12.066;2023-02-18T09:00:53;97082.22;;;12.96;62.27
21821;BME280;11073;48.586;12.066;2023-02-18T09:03:21;97084.75;;;12.97;62.08
21821;BME280;11073;48.586;12.066;2023-02-18T09:05:49;97089.69;;;13.12;61.97
21821;BME280;11073;48.586;12.066;2023-02-18T09:08:18;97075.59;;;13.15;61.77
21821;BME280;11073;48.586;12.066;2023-02-18T09:10:46;97074.53;;;13.16;61.89
21821;BME280;11073;48.586;12.066;2023-02-18T09:13:16;97075.69;;;13.32;61.60
21821;BME280;11073;48.586;12.066;2023-02-18T09:15:45;97072.50;;;13.35;61.32
21821;BME280;11073;48.586;12.066;2023-02-18T09:18:13;97066.25;;;13.35;61.19
21821;BME280;11073;48.586;12.066;2023-02-18T09:20:42;97063.41;;;13.41;60.96
21821;BME280;11073;48.586;12.066;2023-02-18T09:23:11;97062.38;;;13.59;60.74
21821;BME280;11073;48.586;12.066;2023-02-18T09:25:39;97064.31;;;13.75;60.54
21821;BME280;11073;48.586;12.066;2023-02-18T09:28:08;97051.72;;;13.86;60.19
21821;BME280;11073;48.586;12.066;2023-02-18T09:30:39;97043.16;;;13.94;59.95
21821;BME280;11073;48.586;12.066;2023-02-18T09:33:08;97061.78;;;13.86;59.59
21821;BME280;11073;48.586;12.066;2023-02-18T09:35:38;97038.94;;;13.70;59.19
21821;BME280;11073;48.586;12.066;2023-02-18T09:38:09;97038.00;;;13.64;59.17
21821;BME280;11073;48.586;12.066;2023-02-18T09:40:39;97040.00;;;13.69;59.06
21821;BME280;11073;48.586;12.066;2023-02-18T09:43:18;97056.69;;;13.89;59.00
21821;BME280;11073;48.586;12.066;2023-02-18T09:45:52;97017.72;;;13.72;58.69
21821;BME280;11073;48.586;12.066;2023-02-18T09:48:25;97046.44;;;13.79;58.47
21821;BME280;11073;48.586;12.066;2023-02-18T09:50:55;97047.41;;;13.73;58.05
21821;BME280;11073;48.586;12.066;2023-02-18T09:53:24;97056.69;;;13.61;57.68
21821;BME280;11073;48.586;12.066;2023-02-18T09:55:53;97034.16;;;13.48;58.00
21821;BME280;11073;48.586;12.066;2023-02-18T09:58:27;97039.59;;;13.48;58.04
21821;BME280;11073;48.586;12.066;2023-02-18T10:01:04;97022.94;;;13.45;57.87
21821;BME280;11073;48.586;12.066;2023-02-18T10:03:34;97027.06;;;13.47;57.69
21821;BME280;11073;48.586;12.066;2023-02-18T10:06:05;97012.41;;;13.48;57.56
21821;BME280;11073;48.586;12.066;2023-02-18T10:08:37;97022.81;;;13.68;57.61
21821;BME280;11073;48.586;12.066;2023-02-18T10:11:09;97025.00;;;13.83;57.35
21821;BME280;11073;48.586;12.066;2023-02-18T10:13:40;97016.00;;;13.83;57.30
21821;BME280;11073;48.586;12.066;2023-02-18T10:16:14;97001.97;;;13.74;56.96
21821;BME280;11073;48.586;12.066;2023-02-18T10:18:45;96998.94;;;13.70;56.98
21821;BME280;11073;48.586;12.066;2023-02-18T10:21:18;97001.66;;;13.70;56.95
21821;BME280;11073;48.586;12.066;2023-02-18T10:23:53;96998.13;;;13.70;56.66
21821;BME280;11073;48.586;12.066;2023-02-18T10:26:22;96984.66;;;13.63;56.75
21821;BME280;11073;48.586;12.066;2023-02-18T10:28:50;96969.00;;;13.70;56.64
21821;BME280;11073;48.586;12.066;2023-02-18T10:31:24;96990.63;;;13.77;56.95
21821;BME280;11073;48.586;12.066;2023-02-18T10:33:59;96991.25;;;13.67;56.54
21821;BME280;11073;48.586;12.066;2023-02-18T10:36:36;96969.56;;;13.56;56.68
21821;BME280;11073;48.586;12.066;2023-02-18T10:39:26;96979.78;;;13.65;56.36
21821;BME280;11073;48.586;12.066;2023-02-18T10:42:08;96966.44;;;13.64;56.55
21821;BME280;11073;48.586;12.066;2023-02-18T10:44:47;96997.91;;;13.60;56.40
21821;BME280;11073;48.586;12.066;2023-02-18T10:47:29;96973.16;;;13.61;56.34
21821;BME280;11073;48.586;12.066;2023-02-18T10:50:03;96969.16;;;13.64;56.70
21821;BME280;11073;48.586;12.066;2023-02-18T10:52:38;96977.13;;;13.53;56.26
21821;BME280;11073;48.586;12.066;2023-02-18T10:55:09;96958.97;;;13.42;56.34
21821;BME280;11073;48.586;12.066;2023-02-18T10:57:46;96964.59;;;13.52;56.24
21821;BME280;11073;48.586;12.066;2023-02-18T11:00:18;96975.72;;;13.51;56.06
21821;BME280;11073;48.586;12.066;2023-02-18T11:03:13;96965.75;;;13.57;56.25
21821;BME280;11073;48.586;12.066;2023-02-18T11:05:44;96970.53;;;13.49;56.35
21821;BME280;11073;48.586;12.066;2023-02-18T11:08:17;96960.31;;;13.57;56.16
21821;BME280;11073;48.586;12.066;2023-02-18T11:10:48;96960.91;;;13.59;56.49
21821;BME280;11073;48.586;12.066;2023-02-18T11:13:24;96968.81;;;13.60;56.34
21821;BME280;11073;48.586;12.066;2023-02-18T11:15:56;96982.09;;;13.57;56.14
21821;BME280;11073;48.586;12.066;2023-02-18T11:18:32;96947.13;;;13.48;56.23
21821;BME280;11073;48.586;12.066;2023-02-18T11:21:05;96962.94;;;13.51;56.09
21821;BME280;11073;48.586;12.066;2023-02-18T11:23:45;96949.09;;;13.53;56.13
21821;BME280;11073;48.586;12.066;2023-02-18T11:26:16;96939.72;;;13.61;55.95
21821;BME280;11073;48.586;12.066;2023-02-18T11:28:47;96945.16;;;13.61;55.71
21821;BME280;11073;48.586;12.066;2023-02-18T11:31:20;96923.88;;;13.58;55.91
21821;BME280;11073;48.586;12.066;2023-02-18T11:33:52;96939.16;;;13.75;55.74
21821;BME280;11073;48.586;12.066;2023-02-18T11:36:23;96916.66;;;13.63;55.57
21821;BME280;11073;48.586;12.066;2023-02-18T11:38:54;96937.75;;;13.73;55.37
21821;BME280;11073;48.586;12.066;2023-02-18T11:41:30;96920.34;;;13.74;55.14
21821;BME280;11073;48.586;12.066;2023-02-18T11:44:00;96909.31;;;13.80;55.36
21821;BME280;11073;48.586;12.066;2023-02-18T11:46:30;96905.50;;;13.82;54.98
21821;BME280;11073;48.586;12.066;2023-02-18T11:49:20;96894.31;;;13.78;55.02
21821;BME280;11073;48.586;12.066;2023-02-18T11:51:50;96889.69;;;13.78;54.85
21821;BME280;11073;48.586;12.066;2023-02-18T11:54:24;96890.34;;;13.86;55.03
21821;BME280;11073;48.586;12.066;2023-02-18T11:56:55;96882.50;;;13.89;55.00
21821;BME280;11073;48.586;12.066;2023-02-18T11:59:24;96871.94;;;13.93;54.85
21821;BME280;11073;48.586;12.066;2023-02-18T12:01:56;96866.97;;;13.90;54.79
21821;BME280;11073;48.586;12.066;2023-02-18T12:04:33;96866.09;;;13.84;54.81
21821;BME280;11073;48.586;12.066;2023-02-18T12:07:13;96861.53;;;13.90;54.93
21821;BME280;11073;48.586;12.066;2023-02-18T12:09:47;96862.56;;;13.84;54.74
21821;BME280;11073;48.586;12.066;2023-02-18T12:12:24;96855.53;;;13.88;54.92
21821;BME280;11073;48.586;12.066;2023-02-18T12:14:54;96848.75;;;13.90;54.92
21821;BME280;11073;48.586;12.066;2023-02-18T12:17:34;96858.25;;;13.88;54.81
21821;BME280;11073;48.586;12.066;2023-02-18T12:20:20;96840.78;;;13.84;54.90
21821;BME280;11073;48.586;12.066;2023-02-18T12:22:57;96835.34;;;13.84;55.02
21821;BME280;11073;48.586;12.066;2023-02-18T12:25:38;96838.28;;;13.82;55.00
21821;BME280;11073;48.586;12.066;2023-02-18T12:28:21;96838.00;;;13.78;54.91
21821;BME280;11073;48.586;12.066;2023-02-18T12:31:15;96828.22;;;13.83;55.12
21821;BME280;11073;48.586;12.066;2023-02-18T12:33:55;96839.94;;;13.83;55.10
21821;BME280;11073;48.586;12.066;2023-02-18T12:36:37;96841.94;;;13.88;55.16
21821;BME280;11073;48.586;12.066;2023-02-18T12:39:16;96804.00;;;13.81;55.29
21821;BME280;11073;48.586;12.066;2023-02-18T12:41:58;96823.44;;;13.90;55.06
21821;BME280;11073;48.586;12.066;2023-02-18T12:44:36;96827.56;;;13.92;55.12
21821;BME280;11073;48.586;12.066;2023-02-18T12:47:30;96829.41;;;13.87;55.05
21821;BME280;11073;48.586;12.066;2023-02-18T12:50:30;96805.72;;;13.87;54.93
21821;BME280;11073;48.586;12.066;2023-02-18T12:53:21;96816.22;;;13.78;55.09
21821;BME280;11073;48.586;12.066;2023-02-18T12:56:02;96796.91;;;13.80;55.03
21821;BME280;11073;48.586;12.066;2023-02-18T12:58:44;96816.88;;;13.86;55.14
21821;BME280;11073;48.586;12.066;2023-02-18T13:01:32;96817.44;;;13.88;55.10
21821;BME280;11073;48.586;12.066;2023-02-18T13:04:14;96803.25;;;13.86;55.10
21821;BME280;11073;48.586;12.066;2023-02-18T13:07:02;96810.91;;;13.89;54.76
21821;BME280;11073;48.586;12.066;2023-02-18T13:09:45;96816.88;;;13.86;54.72
21821;BME280;11073;48.586;12.066;2023-02-18T13:12:20;96820.31;;;13.81;54.63
21821;BME280;11073;48.586;12.066;2023-02-18T13:14:55;96795.53;;;13.77;54.58
21821;BME280;11073;48.586;12.066;2023-02-18T13:17:30;96793.28;;;13.74;54.97
21821;BME280;11073;48.586;12.066;2023-02-18T13:20:03;96793.28;;;13.74;54.77
21821;BME280;11073;48.586;12.066;2023-02-18T13:22:34;96793.88;;;13.76;55.15
21821;BME280;11073;48.586;12.066;2023-02-18T13:25:11;96780.47;;;13.70;55.09